Terminal Aerodrome Forecast
Issued by NWS

Current Version | Previous Version | Graphics & Text | Print | Product List | Glossary On
Versions: 1 2 3 4 5 6 7 8 9 10 11 12 13 14 15 16 17 18
909
FTUS41 KPBZ 221720
TAFHLG
TAF
KHLG 221720Z 2218/2318 VRB05KT P6SM BKN025
     FM221900 20008KT P6SM BKN040
     FM230000 25005KT P6SM SCT050
     FM230900 26004KT 3SM BR SCT150
     FM231400 28003KT P6SM SCT035=

USA.gov is the U.S. government's official web portal to all federal, state and local government web resources and services.